createdAt,value
2023-04-26T00:02:08.023Z,99624.97
2023-04-26T00:04:35.425Z,99628.56
2023-04-26T00:07:04.072Z,99627.97
2023-04-26T00:09:31.996Z,99631.53
2023-04-26T00:11:59.054Z,99630.13
2023-04-26T00:14:26.437Z,99617.47
2023-04-26T00:16:53.356Z,99622.78
2023-04-26T00:19:22.028Z,99623.34
2023-04-26T00:21:49.573Z,99618.97
2023-04-26T00:24:16.963Z,99632.13
2023-04-26T00:26:43.782Z,99634.13
2023-04-26T00:29:11.385Z,99636.69
2023-04-26T00:31:39.951Z,99641.50
2023-04-26T00:34:09.260Z,99646.06
2023-04-26T00:36:36.504Z,99648.03
2023-04-26T00:39:03.786Z,99651.59
2023-04-26T00:41:32.229Z,99648.41
2023-04-26T00:44:00.317Z,99652.38
2023-04-26T00:46:29.488Z,99659.50
2023-04-26T00:48:57.827Z,99651.13
2023-04-26T00:51:26.093Z,99655.50
2023-04-26T00:53:54.733Z,99654.25
2023-04-26T00:56:22.467Z,99660.16
2023-04-26T00:58:51.549Z,99666.28
2023-04-26T01:01:18.717Z,99666.84
2023-04-26T01:03:47.054Z,99663.06
2023-04-26T01:06:14.577Z,99666.34
2023-04-26T01:08:41.861Z,99661.09
2023-04-26T01:11:11.990Z,99662.09
2023-04-26T01:13:40.894Z,99668.94
2023-04-26T01:16:09.632Z,99668.09
2023-04-26T01:18:37.087Z,99665.66
2023-04-26T01:21:05.927Z,99674.59
2023-04-26T01:23:34.287Z,99674.41
2023-04-26T01:26:02.906Z,99681.16
2023-04-26T01:28:29.798Z,99675.97
2023-04-26T01:30:56.777Z,99687.91
2023-04-26T01:33:23.908Z,99681.16
2023-04-26T01:35:52.213Z,99684.06
2023-04-26T01:38:20.246Z,99683.44
2023-04-26T01:40:47.212Z,99680.88
2023-04-26T01:43:15.654Z,99679.03
2023-04-26T01:45:46.435Z,99678.75
2023-04-26T01:48:32.274Z,99680.94
2023-04-26T01:51:02.196Z,99674.06
2023-04-26T01:53:30.237Z,99666.72
2023-04-26T01:56:00.584Z,99668.03
2023-04-26T01:58:27.436Z,99670.41
2023-04-26T02:00:57.384Z,99667.88
2023-04-26T02:03:24.761Z,99675.81
2023-04-26T02:05:51.812Z,99684.44
2023-04-26T02:08:19.126Z,99678.03
2023-04-26T02:10:46.691Z,99682.84
2023-04-26T02:13:16.023Z,99679.66
2023-04-26T02:15:47.976Z,99687.38
2023-04-26T02:18:15.508Z,99694.75
2023-04-26T02:20:46.376Z,99698.69
2023-04-26T02:23:15.845Z,99708.75
2023-04-26T02:25:47.706Z,99706.16
2023-04-26T02:28:16.368Z,99704.22
2023-04-26T02:30:43.591Z,99694.25
2023-04-26T02:33:11.814Z,99693.00
2023-04-26T02:35:39.288Z,99701.72
2023-04-26T02:38:06.876Z,99699.66
2023-04-26T02:40:34.307Z,99710.16
2023-04-26T02:43:02.814Z,99701.56
2023-04-26T02:45:29.823Z,99700.09
2023-04-26T02:47:56.901Z,99699.94
2023-04-26T02:50:23.927Z,99695.50
2023-04-26T02:52:51.511Z,99702.59
2023-04-26T02:55:18.882Z,99702.00
2023-04-26T02:57:48.668Z,99715.22
2023-04-26T03:00:15.869Z,99717.78
2023-04-26T03:02:43.042Z,99710.41
2023-04-26T03:05:10.823Z,99713.00
2023-04-26T03:07:38.102Z,99722.75
2023-04-26T03:10:05.670Z,99710.75
2023-04-26T03:12:33.842Z,99719.88
2023-04-26T03:15:03.934Z,99723.81
2023-04-26T03:17:32.085Z,99723.16
2023-04-26T03:20:02.375Z,99730.72
2023-04-26T03:22:31.171Z,99728.31
2023-04-26T03:25:02.319Z,99726.41
2023-04-26T03:27:33.613Z,99738.41
2023-04-26T03:30:02.392Z,99747.13
2023-04-26T03:32:32.805Z,99737.13
2023-04-26T03:35:00.183Z,99746.38
2023-04-26T03:37:27.425Z,99740.84
2023-04-26T03:40:02.585Z,99749.84
2023-04-26T03:42:31.362Z,99747.13
2023-04-26T03:44:58.333Z,99749.03
2023-04-26T03:47:25.601Z,99749.03
2023-04-26T03:49:52.684Z,99750.63
2023-04-26T03:52:20.038Z,99743.56
2023-04-26T03:54:48.984Z,99745.16
2023-04-26T03:57:16.254Z,99757.09
2023-04-26T03:59:43.561Z,99758.31
2023-04-26T04:02:11.603Z,99759.09
2023-04-26T04:04:38.777Z,99766.66
2023-04-26T04:07:06.914Z,99764.81
2023-04-26T04:09:34.816Z,99767.00
2023-04-26T04:12:03.124Z,99772.16
2023-04-26T04:14:30.861Z,99765.88
2023-04-26T04:16:59.726Z,99765.31
2023-04-26T04:19:28.682Z,99773.91
2023-04-26T04:21:56.989Z,99781.81
2023-04-26T04:24:26.584Z,99785.25
2023-04-26T04:26:53.823Z,99789.19
2023-04-26T04:29:22.145Z,99801.03
2023-04-26T04:31:49.968Z,99799.16
2023-04-26T04:34:17.301Z,99794.28
2023-04-26T04:36:45.471Z,99789.69
2023-04-26T04:39:16.140Z,99801.88
2023-04-26T04:41:49.126Z,99797.28
2023-04-26T04:44:24.395Z,99812.34
2023-04-26T04:46:52.959Z,99794.66
2023-04-26T04:49:20.964Z,99795.06
2023-04-26T04:51:48.192Z,99804.13
2023-04-26T04:54:17.990Z,99792.09
2023-04-26T04:56:47.541Z,99800.19
2023-04-26T04:59:16.177Z,99809.78
2023-04-26T05:01:43.133Z,99811.88
2023-04-26T05:04:14.843Z,99802.75
2023-04-26T05:06:42.290Z,99811.66
2023-04-26T05:09:11.481Z,99818.22
2023-04-26T05:11:38.856Z,99821.41
2023-04-26T05:14:07.925Z,99815.78
2023-04-26T05:16:35.251Z,99830.13
2023-04-26T05:19:03.840Z,99832.25
2023-04-26T05:21:37.831Z,99832.31
2023-04-26T05:24:14.026Z,99842.63
2023-04-26T05:26:41.498Z,99833.00
2023-04-26T05:29:33.820Z,99844.03
2023-04-26T05:32:27.548Z,99845.81
2023-04-26T05:35:24.294Z,99849.88
2023-04-26T05:37:51.922Z,99850.53
2023-04-26T05:40:24.817Z,99855.28
2023-04-26T05:43:54.757Z,99854.94
2023-04-26T05:46:33.102Z,99851.78
2023-04-26T05:49:00.201Z,99854.63
2023-04-26T05:51:28.374Z,99864.16
2023-04-26T05:53:55.456Z,99857.22
2023-04-26T05:56:24.390Z,99869.47
2023-04-26T05:58:54.485Z,99869.84
2023-04-26T06:01:22.841Z,99879.69
2023-04-26T06:03:50.523Z,99868.78
2023-04-26T06:06:21.548Z,99864.44
2023-04-26T06:08:49.233Z,99877.75
2023-04-26T06:11:16.331Z,99873.25
2023-04-26T06:13:43.946Z,99880.41
2023-04-26T06:16:11.031Z,99889.28
2023-04-26T06:18:38.363Z,99884.78
2023-04-26T06:21:07.166Z,99881.97
2023-04-26T06:23:34.119Z,99888.47
2023-04-26T06:26:01.048Z,99894.59
2023-04-26T06:28:29.203Z,99894.63
2023-04-26T06:30:57.644Z,99898.38
2023-04-26T06:33:25.955Z,99890.00
2023-04-26T06:35:53.237Z,99906.41
2023-04-26T06:38:20.557Z,99899.63
2023-04-26T06:40:47.588Z,99901.84
2023-04-26T06:43:17.076Z,99902.88
2023-04-26T06:45:51.671Z,99907.56
2023-04-26T06:48:20.179Z,99909.91
2023-04-26T06:50:48.667Z,99906.69
2023-04-26T06:53:16.373Z,99903.56
2023-04-26T06:55:43.477Z,99906.72
2023-04-26T06:58:10.536Z,99901.97
2023-04-26T07:00:37.428Z,99892.38
2023-04-26T07:03:04.452Z,99894.41
2023-04-26T07:05:31.907Z,99896.50
2023-04-26T07:07:58.767Z,99907.06
2023-04-26T07:10:27.464Z,99897.59
2023-04-26T07:12:54.905Z,99909.44
2023-04-26T07:15:21.777Z,99907.97
2023-04-26T07:17:48.748Z,99904.56
2023-04-26T07:20:19.907Z,99917.16
2023-04-26T07:22:47.414Z,99913.03
2023-04-26T07:25:14.427Z,99915.72
2023-04-26T07:27:41.317Z,99906.97
2023-04-26T07:30:09.128Z,99910.81
2023-04-26T07:32:36.659Z,99918.97
2023-04-26T07:35:08.235Z,99918.00
2023-04-26T07:37:35.311Z,99920.06
2023-04-26T07:40:02.206Z,99909.16
2023-04-26T07:42:30.960Z,99915.63
2023-04-26T07:44:57.834Z,99915.97
2023-04-26T07:47:24.787Z,99913.38
2023-04-26T07:49:54.771Z,99925.84
2023-04-26T07:52:21.653Z,99930.63
2023-04-26T07:54:48.503Z,99925.09
2023-04-26T07:57:15.402Z,99927.66
2023-04-26T07:59:42.348Z,99934.69
2023-04-26T08:02:09.604Z,99927.06
2023-04-26T08:04:36.884Z,99922.75
2023-04-26T08:07:07.198Z,99925.25
2023-04-26T08:09:34.037Z,99943.59
2023-04-26T08:12:02.425Z,99927.00
2023-04-26T08:14:36.878Z,99925.56
2023-04-26T08:17:03.989Z,99936.31
2023-04-26T08:19:33.581Z,99927.94
2023-04-26T08:22:00.846Z,99928.97
2023-04-26T08:24:30.828Z,99926.44
2023-04-26T08:27:01.301Z,99937.13
2023-04-26T08:29:29.366Z,99935.34
2023-04-26T08:31:58.550Z,99930.03
2023-04-26T08:34:30.547Z,99934.69
2023-04-26T08:36:57.761Z,99937.41
2023-04-26T08:39:25.158Z,99937.97
2023-04-26T08:41:55.477Z,99947.78
2023-04-26T08:44:25.182Z,99937.66
2023-04-26T08:46:54.902Z,99928.66
2023-04-26T08:49:44.004Z,99950.75
2023-04-26T08:52:14.073Z,99937.56
2023-04-26T08:54:42.651Z,99936.41
2023-04-26T08:57:10.005Z,99933.22
2023-04-26T08:59:38.362Z,99952.44
2023-04-26T09:02:10.141Z,99941.25
2023-04-26T09:04:41.203Z,99942.13
2023-04-26T09:07:08.604Z,99950.03
2023-04-26T09:09:43.359Z,99939.75
2023-04-26T09:12:10.401Z,99938.81
2023-04-26T09:14:38.993Z,99949.69
2023-04-26T09:17:06.720Z,99945.94
2023-04-26T09:19:44.701Z,99933.94
2023-04-26T09:25:09.975Z,99956.66
2023-04-26T09:27:44.310Z,99950.53
2023-04-26T09:30:18.430Z,99943.00
2023-04-26T09:32:52.400Z,99942.63
2023-04-26T09:35:24.630Z,99942.06
2023-04-26T09:38:18.391Z,99956.66
2023-04-26T09:40:55.478Z,99946.91
2023-04-26T09:43:23.634Z,99948.50
2023-04-26T09:45:53.197Z,99948.50
2023-04-26T09:48:26.340Z,99927.59
2023-04-26T09:50:55.218Z,99934.41
2023-04-26T09:53:34.452Z,99940.75
2023-04-26T09:56:27.860Z,99943.59
2023-04-26T09:59:16.128Z,99928.28
2023-04-26T10:01:42.991Z,99938.03
2023-04-26T10:04:10.019Z,99924.53
2023-04-26T10:06:37.112Z,99937.09
2023-04-26T10:09:05.877Z,99939.56
2023-04-26T10:11:35.996Z,99936.34
2023-04-26T10:14:04.263Z,99940.88
2023-04-26T10:16:31.666Z,99933.16
2023-04-26T10:19:02.567Z,99934.50
2023-04-26T10:21:38.208Z,99934.69
2023-04-26T10:24:05.673Z,99942.28
2023-04-26T10:26:54.980Z,99926.94
2023-04-26T10:29:22.748Z,99932.34
2023-04-26T10:32:12.498Z,99935.25
2023-04-26T10:34:42.203Z,99932.22
2023-04-26T10:37:15.271Z,99937.97
2023-04-26T10:39:47.307Z,99935.88
2023-04-26T10:42:30.906Z,99931.91
2023-04-26T10:44:59.319Z,99924.63
2023-04-26T10:47:34.940Z,99922.53
2023-04-26T10:50:11.951Z,99913.16
2023-04-26T10:53:04.413Z,99922.00
2023-04-26T10:55:42.559Z,99926.78
2023-04-26T10:58:41.572Z,99923.28
2023-04-26T11:01:13.591Z,99928.97
2023-04-26T11:04:04.157Z,99930.78
2023-04-26T11:06:57.962Z,99916.13
2023-04-26T11:09:41.591Z,99914.38
2023-04-26T11:12:12.623Z,99917.13
2023-04-26T11:14:41.753Z,99921.53
2023-04-26T11:17:09.623Z,99928.19
2023-04-26T11:19:41.435Z,99930.59
2023-04-26T11:22:08.912Z,99936.84
2023-04-26T11:24:39.937Z,99927.41
2023-04-26T11:27:12.839Z,99913.41
2023-04-26T11:29:40.118Z,99916.44
2023-04-26T11:32:07.164Z,99930.13
2023-04-26T11:34:39.439Z,99927.03
2023-04-26T11:37:08.072Z,99917.28
2023-04-26T11:39:38.656Z,99921.06
2023-04-26T11:42:10.540Z,99919.19
2023-04-26T11:44:39.860Z,99914.34
2023-04-26T11:47:08.204Z,99912.63
2023-04-26T11:49:39.974Z,99914.97
2023-04-26T11:52:08.261Z,99920.31
2023-04-26T11:54:37.800Z,99905.25
2023-04-26T11:57:17.762Z,99913.41
2023-04-26T11:59:46.303Z,99912.34
2023-04-26T12:02:13.336Z,99904.47
2023-04-26T12:04:41.903Z,99917.72
2023-04-26T12:07:09.736Z,99910.78
2023-04-26T12:09:44.747Z,99911.78
2023-04-26T12:12:12.544Z,99909.56
2023-04-26T12:14:40.698Z,99910.13
2023-04-26T12:17:08.156Z,99914.44
2023-04-26T12:19:38.502Z,99906.47
2023-04-26T12:22:07.039Z,99900.81
2023-04-26T12:24:36.926Z,99904.38
2023-04-26T12:27:06.947Z,99904.84
2023-04-26T12:29:35.050Z,99906.75
2023-04-26T12:32:02.969Z,99918.88
2023-04-26T12:34:31.066Z,99911.50
2023-04-26T12:36:58.257Z,99913.16
2023-04-26T12:39:25.138Z,99914.72
2023-04-26T12:41:51.981Z,99907.88
2023-04-26T12:44:20.589Z,99912.88
2023-04-26T12:46:49.029Z,99924.16
2023-04-26T12:49:15.881Z,99924.09
2023-04-26T12:51:42.763Z,99922.41
2023-04-26T12:54:11.792Z,99920.56
2023-04-26T12:56:43.871Z,99917.75
2023-04-26T12:59:12.642Z,99926.91
2023-04-26T13:01:39.622Z,99936.63
2023-04-26T13:04:07.028Z,99915.56
2023-04-26T13:06:34.946Z,99914.59
2023-04-26T13:09:02.102Z,99899.56
2023-04-26T13:11:29.091Z,99913.13
2023-04-26T13:13:56.314Z,99908.28
2023-04-26T13:16:23.289Z,99905.72
2023-04-26T13:18:50.236Z,99917.44
2023-04-26T13:21:17.203Z,99914.69
2023-04-26T13:23:44.073Z,99919.22
2023-04-26T13:26:10.946Z,99903.47
2023-04-26T13:28:37.744Z,99895.53
2023-04-26T13:31:04.778Z,99905.44
2023-04-26T13:33:32.635Z,99908.44
2023-04-26T13:35:59.513Z,99914.88
2023-04-26T13:38:34.460Z,99902.97
2023-04-26T13:41:02.715Z,99915.94
2023-04-26T13:43:29.601Z,99924.53
2023-04-26T13:45:56.771Z,99906.31
2023-04-26T13:48:23.636Z,99907.13
2023-04-26T13:51:00.772Z,99929.25
2023-04-26T13:53:27.805Z,99924.19
2023-04-26T13:55:54.679Z,99918.00
2023-04-26T13:58:23.963Z,99925.59
2023-04-26T14:00:50.803Z,99905.78
2023-04-26T14:03:18.983Z,99917.19
2023-04-26T14:05:45.939Z,99918.16
2023-04-26T14:08:12.851Z,99910.81
2023-04-26T14:10:39.953Z,99915.56
2023-04-26T14:13:06.794Z,99920.44
2023-04-26T14:15:33.571Z,99912.53
2023-04-26T14:18:00.548Z,99915.66
2023-04-26T14:20:27.360Z,99910.03
2023-04-26T14:22:54.238Z,99916.78
2023-04-26T14:25:21.199Z,99916.78
2023-04-26T14:27:48.771Z,99919.41
2023-04-26T14:30:15.719Z,99920.31
2023-04-26T14:32:42.615Z,99909.59
2023-04-26T14:35:12.518Z,99909.19
2023-04-26T14:37:39.434Z,99912.66
2023-04-26T14:40:08.108Z,99902.66
2023-04-26T14:42:35.911Z,99901.81
2023-04-26T14:45:02.824Z,99902.00
2023-04-26T14:47:34.244Z,99916.41
2023-04-26T14:50:01.165Z,99904.84
2023-04-26T14:52:31.505Z,99908.91
2023-04-26T14:54:58.632Z,99912.84
2023-04-26T14:57:25.582Z,99907.84
2023-04-26T14:59:52.427Z,99915.66
2023-04-26T15:02:19.341Z,99924.63
2023-04-26T15:04:46.516Z,99909.22
2023-04-26T15:07:24.894Z,99922.41
2023-04-26T15:09:58.316Z,99922.34
2023-04-26T15:12:25.402Z,99919.44
2023-04-26T15:14:52.309Z,99924.00
2023-04-26T15:17:19.175Z,99921.25
2023-04-26T15:19:46.648Z,99916.47
2023-04-26T15:22:14.660Z,99931.25
2023-04-26T15:24:41.531Z,99932.38
2023-04-26T15:27:08.684Z,99922.50
2023-04-26T15:29:36.057Z,99924.63
2023-04-26T15:32:03.310Z,99930.34
2023-04-26T15:34:38.894Z,99927.66
2023-04-26T15:37:05.975Z,99926.38
2023-04-26T15:39:32.799Z,99931.44
2023-04-26T15:42:00.343Z,99927.94
2023-04-26T15:44:27.685Z,99934.91
2023-04-26T15:46:54.526Z,99928.41
2023-04-26T15:49:23.198Z,99925.97
2023-04-26T15:51:50.080Z,99932.94
2023-04-26T15:54:16.973Z,99935.66
2023-04-26T15:56:46.502Z,99928.72
2023-04-26T15:59:13.881Z,99935.16
2023-04-26T16:01:41.217Z,99935.53
2023-04-26T16:04:08.358Z,99930.63
2023-04-26T16:06:35.202Z,99937.34
2023-04-26T16:09:20.804Z,99936.03
2023-04-26T16:11:51.010Z,99945.63
2023-04-26T16:14:27.006Z,99939.50
2023-04-26T16:16:53.843Z,99950.72
2023-04-26T16:19:31.887Z,99944.66
2023-04-26T16:22:09.971Z,99938.47
2023-04-26T16:24:36.983Z,99943.00
2023-04-26T16:27:07.504Z,99942.84
2023-04-26T16:29:46.089Z,99939.13
2023-04-26T16:32:14.768Z,99939.50
2023-04-26T16:34:53.657Z,99936.00
2023-04-26T16:37:36.650Z,99932.00
2023-04-26T16:40:11.709Z,99940.59
2023-04-26T16:42:45.850Z,99944.19
2023-04-26T16:45:16.069Z,99932.97
2023-04-26T16:47:47.473Z,99947.66
2023-04-26T16:50:14.680Z,99943.31
2023-04-26T16:52:42.802Z,99943.31
2023-04-26T16:55:17.873Z,99956.56
2023-04-26T16:57:46.153Z,99951.38
2023-04-26T17:00:18.105Z,99951.41
2023-04-26T17:02:50.517Z,99953.44
2023-04-26T17:05:18.069Z,99948.22
2023-04-26T17:07:45.063Z,99951.81
2023-04-26T17:10:12.125Z,99972.59
2023-04-26T17:12:39.229Z,99957.84
2023-04-26T17:15:09.801Z,99968.09
2023-04-26T17:17:36.936Z,99963.25
2023-04-26T17:20:28.978Z,99958.34
2023-04-26T17:22:58.685Z,99963.53
2023-04-26T17:25:26.275Z,99971.75
2023-04-26T17:27:53.659Z,99960.38
2023-04-26T17:30:25.967Z,99970.19
2023-04-26T17:32:53.377Z,99964.38
2023-04-26T17:35:20.992Z,99968.00
2023-04-26T17:37:51.571Z,99976.78
2023-04-26T17:40:19.230Z,99979.16
2023-04-26T17:42:48.559Z,99980.38
2023-04-26T17:45:18.148Z,99984.53
2023-04-26T17:47:46.113Z,99986.94
2023-04-26T17:50:15.536Z,99994.75
2023-04-26T17:52:42.773Z,99990.91
2023-04-26T17:55:13.478Z,99994.72
2023-04-26T17:57:44.024Z,99992.72
2023-04-26T18:00:12.902Z,99993.09
2023-04-26T18:02:49.595Z,100002.69
2023-04-26T18:05:18.985Z,100011.47
2023-04-26T18:07:50.739Z,100010.66
2023-04-26T18:10:24.036Z,100023.22
2023-04-26T18:12:59.000Z,100024.19
2023-04-26T18:15:26.107Z,100025.75
2023-04-26T18:17:53.534Z,100026.59
2023-04-26T18:20:20.606Z,100035.31
2023-04-26T18:22:47.431Z,100029.34
2023-04-26T18:25:16.023Z,100027.31
2023-04-26T18:27:43.335Z,100027.50
2023-04-26T18:30:12.886Z,100028.31
2023-04-26T18:32:41.409Z,100035.28
2023-04-26T18:35:08.532Z,100038.06
2023-04-26T18:37:35.518Z,100038.03
2023-04-26T18:40:02.333Z,100044.00
2023-04-26T18:42:30.752Z,100052.97
2023-04-26T18:44:57.635Z,100051.31
2023-04-26T18:47:24.536Z,100061.47
2023-04-26T18:49:51.677Z,100061.84
2023-04-26T18:52:18.939Z,100060.63
2023-04-26T18:54:46.900Z,100061.63
2023-04-26T18:57:14.929Z,100059.78
2023-04-26T18:59:41.740Z,100064.09
2023-04-26T19:02:08.780Z,100064.47
2023-04-26T19:04:35.775Z,100068.47
2023-04-26T19:07:02.824Z,100071.66
2023-04-26T19:09:42.780Z,100062.44
2023-04-26T19:12:17.695Z,100074.16
2023-04-26T19:14:44.484Z,100067.97
2023-04-26T19:17:11.475Z,100071.38
2023-04-26T19:19:38.357Z,100074.34
2023-04-26T19:22:05.275Z,100062.56
2023-04-26T19:24:32.072Z,100073.09
2023-04-26T19:26:58.865Z,100063.91
2023-04-26T19:29:25.902Z,100072.47
2023-04-26T19:31:52.915Z,100068.50
2023-04-26T19:34:19.938Z,100075.88
2023-04-26T19:36:46.761Z,100073.88
2023-04-26T19:39:13.569Z,100067.44
2023-04-26T19:41:40.526Z,100076.63
2023-04-26T19:44:07.333Z,100075.38
2023-04-26T19:46:34.309Z,100079.97
2023-04-26T19:49:01.282Z,100083.56
2023-04-26T19:51:29.917Z,100084.34
2023-04-26T19:53:56.789Z,100084.94
2023-04-26T19:56:23.616Z,100088.94
2023-04-26T19:58:50.446Z,100094.13
2023-04-26T20:01:17.534Z,100099.31
2023-04-26T20:03:44.783Z,100098.28
2023-04-26T20:06:14.020Z,100100.06
2023-04-26T20:08:41.657Z,100106.38
2023-04-26T20:11:35.735Z,100102.00
2023-04-26T20:14:02.522Z,100106.06
2023-04-26T20:16:29.498Z,100102.00
2023-04-26T20:18:56.981Z,100109.25
2023-04-26T20:21:29.045Z,100112.03
2023-04-26T20:23:58.584Z,100109.44
2023-04-26T20:26:25.698Z,100110.84
2023-04-26T20:28:55.277Z,100115.22
2023-04-26T20:31:29.877Z,100111.22
2023-04-26T20:33:58.283Z,100116.41
2023-04-26T20:36:27.440Z,100120.00
2023-04-26T20:38:54.264Z,100120.78
2023-04-26T20:41:22.241Z,100124.53
2023-04-26T20:43:49.258Z,100121.31
2023-04-26T20:46:21.015Z,100126.66
2023-04-26T20:48:56.331Z,100128.66
2023-04-26T20:51:51.481Z,100133.66
2023-04-26T20:54:19.241Z,100128.28
2023-04-26T20:56:48.524Z,100129.06
2023-04-26T20:59:21.140Z,100133.44
2023-04-26T21:01:48.054Z,100139.63
2023-04-26T21:04:15.265Z,100144.19
2023-04-26T21:06:42.482Z,100141.00
2023-04-26T21:09:12.483Z,100145.56
2023-04-26T21:11:41.586Z,100142.31
2023-04-26T21:14:11.104Z,100149.50
2023-04-26T21:16:47.980Z,100153.06
2023-04-26T21:19:14.845Z,100159.44
2023-04-26T21:21:44.484Z,100153.31
2023-04-26T21:24:11.378Z,100155.72
2023-04-26T21:26:41.451Z,100152.34
2023-04-26T21:29:08.754Z,100153.56
2023-04-26T21:31:36.166Z,100156.16
2023-04-26T21:34:03.145Z,100147.59
2023-04-26T21:36:30.037Z,100163.34
2023-04-26T21:38:56.924Z,100160.94
2023-04-26T21:41:25.776Z,100166.75
2023-04-26T21:43:57.234Z,100165.44
2023-04-26T21:46:24.281Z,100168.59
2023-04-26T21:48:51.330Z,100169.22
2023-04-26T21:51:20.012Z,100181.00
2023-04-26T21:53:47.039Z,100173.09
2023-04-26T21:56:14.780Z,100177.88
2023-04-26T21:58:42.111Z,100182.06
2023-04-26T22:01:11.541Z,100177.88
2023-04-26T22:03:40.982Z,100184.28
2023-04-26T22:06:09.429Z,100184.72
2023-04-26T22:08:37.024Z,100186.94
2023-04-26T22:11:03.946Z,100187.56
2023-04-26T22:13:32.429Z,100193.16
2023-04-26T22:15:59.515Z,100194.41
2023-04-26T22:18:27.177Z,100196.03
2023-04-26T22:20:54.304Z,100197.63
2023-04-26T22:23:21.326Z,100197.22
2023-04-26T22:25:48.215Z,100198.22
2023-04-26T22:28:15.697Z,100200.81
2023-04-26T22:30:42.872Z,100202.38
2023-04-26T22:33:11.268Z,100206.09
2023-04-26T22:35:38.387Z,100214.69
2023-04-26T22:38:05.309Z,100210.69
2023-04-26T22:40:32.775Z,100215.50
2023-04-26T22:42:59.820Z,100219.53
2023-04-26T22:45:27.071Z,100222.91
2023-04-26T22:47:54.067Z,100219.94
2023-04-26T22:50:21.698Z,100227.69
2023-04-26T22:52:49.876Z,100226.94
2023-04-26T22:55:17.266Z,100218.34
2023-04-26T22:57:45.051Z,100222.91
2023-04-26T23:00:14.829Z,100225.50
2023-04-26T23:02:42.041Z,100230.22
2023-04-26T23:05:12.163Z,100230.81
2023-04-26T23:07:39.967Z,100224.19
2023-04-26T23:10:07.555Z,100231.44
2023-04-26T23:12:36.161Z,100232.41
2023-04-26T23:15:05.351Z,100235.81
2023-04-26T23:17:35.478Z,100238.19
2023-04-26T23:20:08.197Z,100245.72
2023-04-26T23:22:35.050Z,100245.72
2023-04-26T23:25:02.048Z,100244.97
2023-04-26T23:27:31.150Z,100250.94
2023-04-26T23:29:59.628Z,100251.78
2023-04-26T23:32:27.064Z,100253.53
2023-04-26T23:34:53.883Z,100255.00
2023-04-26T23:37:21.209Z,100253.38
2023-04-26T23:39:48.131Z,100240.38
2023-04-26T23:42:16.559Z,100256.13
2023-04-26T23:44:43.461Z,100258.56
2023-04-26T23:47:10.480Z,100254.38
2023-04-26T23:49:37.362Z,100251.78
2023-04-26T23:52:06.803Z,100246.97
2023-04-26T23:54:33.756Z,100242.78
2023-04-26T23:57:00.797Z,100245.72
2023-04-26T23:59:27.657Z,100237.34
